Time;durP1;ratioP1;P1;durP2;ratioP2;P2;SDS_P1;SDS_P2;PMS_P1;PMS_P2;Temp;Humidity;BMP_temperature;BMP_pressure;BME280_temperature;BME280_humidity;BME280_pressure;Samples;Min_cycle;Max_cycle;Signal;HPM_P1;HPM_P2
2023/11/15 00:01:06;;;;;;;0.30;0.30;;;;;;;5.90;100.00;96516.75;5048874;28;20060;-65
2023/11/15 00:03:33;;;;;;;0.30;0.30;;;;;;;6.67;99.88;96614.16;5048976;28;20110;-65
2023/11/15 00:06:00;;;;;;;0.30;0.30;;;;;;;6.04;99.02;96494.31;5048620;28;20949;-65
2023/11/15 00:08:28;;;;;;;0.35;0.35;;;;;;;6.74;99.29;96600.59;5066785;28;20435;-65
2023/11/15 00:10:54;;;;;;;0.30;0.30;;;;;;;6.80;98.80;96606.63;5048386;28;20044;-64
2023/11/15 00:13:21;;;;;;;0.40;0.40;;;;;;;6.83;98.60;96597.66;5048620;28;20057;-63
2023/11/15 00:15:48;;;;;;;0.40;0.40;;;;;;;6.86;99.39;96606.00;5066364;28;20127;-64
2023/11/15 00:18:15;;;;;;;0.40;0.40;;;;;;;6.94;98.71;96605.00;5066331;28;20575;-63
2023/11/15 00:20:42;;;;;;;0.32;0.32;;;;;;;7.01;98.63;96599.69;5066428;28;20151;-65
2023/11/15 00:23:08;;;;;;;0.30;0.30;;;;;;;7.01;98.29;96602.44;5066273;28;20109;-65
2023/11/15 00:25:36;;;;;;;0.30;0.30;;;;;;;7.07;97.46;96592.72;5066223;28;20060;-65
2023/11/15 00:28:03;;;;;;;0.38;0.38;;;;;;;7.03;96.43;96586.34;5066802;28;20051;-65
2023/11/15 00:30:30;;;;;;;0.40;0.40;;;;;;;6.95;96.91;96568.06;5066199;28;20063;-65
2023/11/15 00:32:57;;;;;;;0.30;0.30;;;;;;;7.07;97.14;96572.66;5066088;28;20139;-65
2023/11/15 00:35:25;;;;;;;0.40;0.40;;;;;;;7.11;96.50;96574.31;5048407;28;20537;-66
2023/11/15 00:37:52;;;;;;;0.30;0.30;;;;;;;7.06;96.31;96573.81;5065981;28;20139;-64
2023/11/15 00:40:20;;;;;;;0.30;0.30;;;;;;;6.65;96.63;96514.69;5066424;28;20121;-64
2023/11/15 00:42:48;;;;;;;0.38;0.38;;;;;;;6.97;97.08;96563.00;5066233;28;20048;-64
2023/11/15 00:45:15;;;;;;;0.30;0.30;;;;;;;6.99;96.40;96557.94;5066149;28;20052;-64
2023/11/15 00:47:42;;;;;;;0.30;0.30;;;;;;;6.93;97.75;96551.13;5065931;28;20045;-65
2023/11/15 00:50:10;;;;;;;0.30;0.30;;;;;;;6.80;99.11;96552.38;5066134;28;20045;-64
2023/11/15 00:52:37;;;;;;;0.30;0.30;;;;;;;6.90;98.67;96543.56;5048157;28;20060;-64
2023/11/15 00:55:05;;;;;;;0.32;0.32;;;;;;;7.02;98.86;96537.94;5066151;28;20064;-65
2023/11/15 00:57:31;;;;;;;0.30;0.30;;;;;;;6.72;98.61;96490.06;5066015;28;20530;-64
2023/11/15 00:59:58;;;;;;;0.30;0.30;;;;;;;7.05;98.16;96542.72;5065602;28;20056;-64
2023/11/15 01:02:29;;;;;;;0.30;0.30;;;;;;;7.03;97.42;96558.03;5081346;28;20056;-65
2023/11/15 01:04:57;;;;;;;0.30;0.30;;;;;;;6.95;98.02;96543.28;5066309;28;20164;-64
2023/11/15 01:07:24;;;;;;;0.30;0.30;;;;;;;6.94;97.46;96544.44;5064395;28;20126;-64
2023/11/15 01:09:51;;;;;;;0.30;0.30;;;;;;;6.81;97.52;96540.19;5064500;28;20051;-65
2023/11/15 01:12:18;;;;;;;0.30;0.30;;;;;;;6.88;96.68;96534.88;5064088;28;20128;-64
2023/11/15 01:14:45;;;;;;;0.30;0.30;;;;;;;6.86;96.08;96523.41;5084600;28;20521;-64
2023/11/15 01:17:11;;;;;;;0.32;0.32;;;;;;;6.82;97.30;96517.03;5067338;28;20054;-64
2023/11/15 01:19:38;;;;;;;0.30;0.30;;;;;;;6.34;97.77;96461.66;5085922;28;20819;-64
2023/11/15 01:22:05;;;;;;;0.30;0.30;;;;;;;6.85;98.62;96507.25;5084205;28;20052;-64
2023/11/15 01:24:32;;;;;;;0.30;0.30;;;;;;;6.87;98.93;96505.75;5085770;28;20522;-64
2023/11/15 01:26:58;;;;;;;0.30;0.30;;;;;;;6.66;99.31;96476.94;5067038;28;20048;-65
2023/11/15 01:29:25;;;;;;;0.30;0.30;;;;;;;6.81;100.00;96496.16;5085710;28;20102;-63
2023/11/15 01:31:52;;;;;;;0.30;0.30;;;;;;;5.21;99.21;96228.13;5067125;28;20541;-65
2023/11/15 01:34:18;;;;;;;0.30;0.30;;;;;;;6.93;99.05;96487.78;5067256;28;20074;-64
2023/11/15 01:36:46;;;;;;;0.30;0.30;;;;;;;6.54;98.54;96480.63;5085334;28;20059;-65
2023/11/15 01:39:16;;;;;;;0.30;0.30;;;;;;;6.91;97.60;96484.59;5085185;28;20466;-64
2023/11/15 01:41:48;;;;;;;0.32;0.32;;;;;;;7.14;96.19;96498.47;5067396;28;20048;-64
2023/11/15 01:44:16;;;;;;;0.40;0.40;;;;;;;6.48;96.27;96415.22;5048604;28;20056;-64
2023/11/15 01:46:46;;;;;;;0.30;0.30;;;;;;;6.88;96.08;96468.81;5044889;28;20069;-66
2023/11/15 01:49:15;;;;;;;0.30;0.30;;;;;;;6.95;96.77;96496.50;5043710;28;20049;-65
2023/11/15 01:51:42;;;;;;;0.35;0.35;;;;;;;6.71;97.56;96496.72;5044809;28;20325;-64
2023/11/15 01:54:10;;;;;;;0.38;0.38;;;;;;;6.70;96.82;96500.63;5044987;28;20067;-64
2023/11/15 01:56:39;;;;;;;0.30;0.30;;;;;;;6.58;96.45;96491.69;5045308;28;20055;-64
2023/11/15 01:59:06;;;;;;;0.30;0.30;;;;;;;6.52;96.33;96515.13;5062818;28;20058;-65
2023/11/15 02:01:34;;;;;;;0.30;0.30;;;;;;;5.87;95.59;96418.50;5085033;28;20510;-65
2023/11/15 02:04:01;;;;;;;0.30;0.30;;;;;;;6.33;96.77;96491.13;5085051;28;20052;-64
2023/11/15 02:06:35;;;;;;;0.40;0.40;;;;;;;6.09;97.88;96447.31;5083681;28;20048;-65
2023/11/15 02:09:02;;;;;;;0.38;0.38;;;;;;;6.00;97.02;96421.97;5066788;28;20125;-64
2023/11/15 02:11:30;;;;;;;0.30;0.30;;;;;;;6.50;98.74;96506.44;5083226;28;20113;-63
2023/11/15 02:13:58;;;;;;;0.30;0.30;;;;;;;6.58;99.05;96502.69;5065683;28;20055;-63
2023/11/15 02:16:26;;;;;;;0.30;0.30;;;;;;;6.40;100.00;96507.81;5065322;28;20507;-64
2023/11/15 02:18:53;;;;;;;0.40;0.40;;;;;;;6.43;99.87;96490.59;5083736;28;20051;-64
2023/11/15 02:21:20;;;;;;;0.30;0.30;;;;;;;5.82;100.00;96398.72;5082958;28;20060;-64
2023/11/15 02:23:48;;;;;;;0.30;0.30;;;;;;;6.41;100.00;96484.63;5083988;28;20044;-65
2023/11/15 02:26:14;;;;;;;0.30;0.30;;;;;;;6.40;100.00;96485.78;5083824;28;20562;-63
2023/11/15 02:28:41;;;;;;;0.30;0.30;;;;;;;5.75;98.57;96379.31;5083795;28;20161;-64
2023/11/15 02:31:10;;;;;;;0.30;0.30;;;;;;;6.44;100.00;96478.41;5083624;28;20059;-65
2023/11/15 02:33:37;;;;;;;0.30;0.30;;;;;;;6.49;100.00;96480.09;5064977;28;20132;-65
2023/11/15 02:36:05;;;;;;;0.38;0.38;;;;;;;6.30;100.00;96441.53;5082892;28;20538;-64
2023/11/15 02:38:32;;;;;;;0.30;0.30;;;;;;;6.16;100.00;96420.00;5083408;28;20048;-64
2023/11/15 02:40:58;;;;;;;0.30;0.30;;;;;;;6.63;99.53;96475.72;5065149;28;20083;-64
2023/11/15 02:43:25;;;;;;;0.38;0.38;;;;;;;6.41;99.97;96465.38;5065042;28;20054;-64
2023/11/15 02:45:52;;;;;;;0.40;0.40;;;;;;;6.04;100.00;96439.31;5083448;28;20139;-64
2023/11/15 02:48:19;;;;;;;0.30;0.30;;;;;;;6.10;100.00;96476.41;5083542;28;20063;-65
2023/11/15 02:50:46;;;;;;;0.30;0.30;;;;;;;6.44;100.00;96497.66;5065111;28;20043;-64
2023/11/15 02:53:12;;;;;;;0.30;0.30;;;;;;;6.53;99.11;96487.25;5082888;28;20475;-64
2023/11/15 02:55:39;;;;;;;0.30;0.30;;;;;;;6.50;98.57;96484.41;5082651;28;20628;-64
2023/11/15 02:58:06;;;;;;;0.40;0.40;;;;;;;6.43;98.18;96463.06;5082726;28;20044;-64
2023/11/15 03:00:33;;;;;;;0.40;0.40;;;;;;;6.51;98.34;96478.59;5063256;28;20135;-64
2023/11/15 03:02:59;;;;;;;0.30;0.30;;;;;;;6.41;98.51;96476.38;5062951;28;20063;-65
2023/11/15 03:05:26;;;;;;;0.30;0.30;;;;;;;6.53;98.69;96479.00;5063243;28;20048;-64
2023/11/15 03:07:54;;;;;;;0.38;0.38;;;;;;;6.56;98.24;96492.03;5062690;28;20554;-65
2023/11/15 03:10:21;;;;;;;0.30;0.30;;;;;;;6.53;98.42;96483.72;5062986;28;20083;-64
2023/11/15 03:12:48;;;;;;;0.40;0.40;;;;;;;6.54;98.50;96486.13;5000225;28;1272215;-63
2023/11/15 03:15:15;;;;;;;0.30;0.30;;;;;;;6.25;97.20;96444.53;5062175;28;20163;-63
2023/11/15 03:17:42;;;;;;;0.30;0.30;;;;;;;6.38;97.97;96492.78;5063622;28;20048;-64
2023/11/15 03:20:10;;;;;;;0.30;0.30;;;;;;;5.80;100.00;96488.97;5063553;28;20557;-64
2023/11/15 03:22:37;;;;;;;0.30;0.30;;;;;;;5.28;100.00;96362.81;5063461;28;20048;-64
2023/11/15 03:25:04;;;;;;;0.32;0.32;;;;;;;6.12;100.00;96496.09;5045649;28;20061;-65
2023/11/15 03:27:31;;;;;;;0.30;0.30;;;;;;;5.76;100.00;96411.13;5063452;28;20479;-64
2023/11/15 03:29:57;;;;;;;0.30;0.30;;;;;;;5.92;98.15;96436.69;5063575;28;20055;-64
2023/11/15 03:32:24;;;;;;;0.32;0.32;;;;;;;5.48;100.00;96481.81;5063615;28;20063;-63
2023/11/15 03:34:51;;;;;;;0.30;0.30;;;;;;;5.63;100.00;96459.84;5067952;28;20134;-63
2023/11/15 03:37:18;;;;;;;0.30;0.30;;;;;;;5.82;100.00;96456.44;5049336;28;20044;-64
2023/11/15 03:39:45;;;;;;;0.30;0.30;;;;;;;5.47;100.00;96408.81;5067699;28;20052;-65
2023/11/15 03:42:12;;;;;;;0.30;0.30;;;;;;;5.93;100.00;96465.75;5049654;28;20052;-65
2023/11/15 03:44:39;;;;;;;0.30;0.30;;;;;;;6.05;99.44;96484.94;5053467;28;20128;-64
2023/11/15 03:47:06;;;;;;;0.30;0.30;;;;;;;5.59;99.54;96405.97;5047014;28;20049;-64
2023/11/15 03:49:33;;;;;;;0.30;0.30;;;;;;;6.01;98.91;96459.28;5047433;28;20095;-65
2023/11/15 03:51:59;;;;;;;0.30;0.30;;;;;;;6.07;98.21;96449.59;5046912;28;20079;-65
2023/11/15 03:54:26;;;;;;;0.30;0.30;;;;;;;5.58;98.48;96383.19;5029411;28;20539;-65
2023/11/15 03:56:53;;;;;;;0.30;0.30;;;;;;;5.75;98.82;96407.56;5047139;28;20274;-64
2023/11/15 03:59:19;;;;;;;0.30;0.30;;;;;;;6.11;98.42;96451.31;5046955;28;20076;-65
2023/11/15 04:01:49;;;;;;;0.30;0.30;;;;;;;5.80;99.63;96412.03;5046949;28;20510;-64
2023/11/15 04:04:23;;;;;;;0.30;0.30;;;;;;;5.96;100.00;96443.06;5047159;28;20147;-65
2023/11/15 04:06:51;;;;;;;0.30;0.30;;;;;;;5.91;100.00;96419.38;5045730;28;20135;-64
2023/11/15 04:09:18;;;;;;;0.30;0.30;;;;;;;5.97;100.00;96422.69;5046965;28;20059;-64
2023/11/15 04:11:45;;;;;;;0.30;0.30;;;;;;;6.16;100.00;96447.50;5047113;28;20056;-64
2023/11/15 04:14:12;;;;;;;0.30;0.30;;;;;;;6.21;100.00;96449.16;5045071;28;20056;-64
2023/11/15 04:16:38;;;;;;;0.30;0.30;;;;;;;6.09;100.00;96430.81;5046454;28;20578;-64
2023/11/15 04:19:05;;;;;;;0.30;0.30;;;;;;;6.16;99.83;96445.53;5046858;28;20520;-64
2023/11/15 04:21:32;;;;;;;0.30;0.30;;;;;;;6.10;100.00;96437.94;5046677;28;20508;-65
2023/11/15 04:23:59;;;;;;;0.40;0.40;;;;;;;6.22;100.00;96435.06;5045123;28;20424;-64
2023/11/15 04:26:26;;;;;;;0.30;0.30;;;;;;;6.21;99.87;96422.47;5046282;28;20115;-64
2023/11/15 04:28:53;;;;;;;0.30;0.30;;;;;;;6.27;99.27;96432.03;5046328;28;20044;-65
2023/11/15 04:31:20;;;;;;;0.38;0.38;;;;;;;6.23;99.47;96420.16;5045400;28;20049;-65
2023/11/15 04:33:48;;;;;;;0.30;0.30;;;;;;;5.94;99.04;96362.94;5045169;28;20524;-65
2023/11/15 04:36:19;;;;;;;0.30;0.30;;;;;;;5.93;98.35;96366.81;5045980;28;20056;-65
2023/11/15 04:38:47;;;;;;;0.30;0.30;;;;;;;6.30;97.99;96408.53;5046488;28;20045;-66
2023/11/15 04:41:14;;;;;;;0.30;0.30;;;;;;;5.73;97.78;96319.22;5045811;28;20508;-65
2023/11/15 04:43:41;;;;;;;0.30;0.30;;;;;;;6.02;97.16;96370.19;5044117;28;20068;-65
2023/11/15 04:46:08;;;;;;;0.30;0.30;;;;;;;5.78;98.36;96337.38;5046677;28;20067;-65
2023/11/15 04:48:35;;;;;;;0.30;0.30;;;;;;;6.19;98.73;96402.78;5046207;28;20053;-66
2023/11/15 04:51:03;;;;;;;0.25;0.25;;;;;;;5.87;97.75;96351.75;5046448;28;20286;-65
2023/11/15 04:53:29;;;;;;;0.30;0.30;;;;;;;6.07;97.52;96400.94;5045853;28;20419;-65
2023/11/15 04:55:57;;;;;;;0.40;0.40;;;;;;;5.52;98.13;96312.41;5045702;28;20053;-65
2023/11/15 04:58:24;;;;;;;0.30;0.30;;;;;;;5.57;98.36;96320.38;5046065;28;20425;-66
2023/11/15 05:00:50;;;;;;;0.30;0.30;;;;;;;6.15;99.58;96379.91;5027663;28;20053;-66
2023/11/15 05:03:19;;;;;;;0.35;0.35;;;;;;;6.25;98.88;96375.78;5046121;28;20148;-65
2023/11/15 05:05:46;;;;;;;0.30;0.30;;;;;;;6.34;97.95;96376.41;5045374;28;20575;-64
2023/11/15 05:08:13;;;;;;;0.30;0.30;;;;;;;6.31;97.62;96380.66;5027640;28;20053;-65
2023/11/15 05:10:40;;;;;;;0.30;0.30;;;;;;;5.46;100.00;96386.03;5027584;28;20049;-65
2023/11/15 05:13:07;;;;;;;0.30;0.30;;;;;;;5.44;100.00;96388.34;5026282;28;20061;-65
2023/11/15 05:15:34;;;;;;;0.30;0.30;;;;;;;5.61;100.00;96382.50;5025674;28;20463;-65
2023/11/15 05:18:01;;;;;;;0.30;0.30;;;;;;;5.75;100.00;96371.84;5025985;28;21330;-65
2023/11/15 05:20:28;;;;;;;0.30;0.30;;;;;;;5.56;100.00;96318.81;5025716;28;20049;-65
2023/11/15 05:22:55;;;;;;;0.30;0.30;;;;;;;5.73;100.00;96321.16;5025866;28;20061;-66
2023/11/15 05:25:22;;;;;;;0.30;0.30;;;;;;;5.66;99.92;96308.06;5025754;28;20463;-65
2023/11/15 05:27:49;;;;;;;0.30;0.30;;;;;;;6.06;98.91;96343.56;5024008;28;20061;-66
2023/11/15 05:30:16;;;;;;;0.35;0.35;;;;;;;5.54;99.22;96352.13;5025372;28;20063;-65
2023/11/15 05:32:45;;;;;;;0.40;0.40;;;;;;;6.09;100.00;96353.84;5027741;28;20064;-65
2023/11/15 05:35:12;;;;;;;0.30;0.30;;;;;;;6.10;98.89;96358.19;5043256;28;20470;-65
2023/11/15 05:37:39;;;;;;;0.30;0.30;;;;;;;5.95;100.00;96337.03;5025244;28;20049;-66
2023/11/15 05:40:07;;;;;;;0.30;0.30;;;;;;;6.28;100.00;96342.06;5026273;28;20057;-65
2023/11/15 05:42:34;;;;;;;0.30;0.30;;;;;;;6.55;100.00;96339.16;5024764;28;20077;-65
2023/11/15 05:45:01;;;;;;;0.30;0.30;;;;;;;6.10;100.00;96378.22;5024694;28;20114;-65
2023/11/15 05:47:29;;;;;;;0.30;0.30;;;;;;;5.75;100.00;96360.06;5024388;28;20047;-66
2023/11/15 05:49:56;;;;;;;0.30;0.30;;;;;;;6.10;100.00;96338.97;5023119;28;20055;-65
2023/11/15 05:52:23;;;;;;;0.30;0.30;;;;;;;6.34;100.00;96333.19;5021685;28;20077;-65
2023/11/15 05:54:50;;;;;;;0.30;0.30;;;;;;;6.65;100.00;96326.75;5026016;28;20075;-67
2023/11/15 05:57:17;;;;;;;0.30;0.30;;;;;;;6.47;100.00;96290.63;5044249;28;20167;-65
2023/11/15 05:59:44;;;;;;;0.30;0.30;;;;;;;6.98;99.71;96340.78;5044831;28;20091;-64
2023/11/15 06:02:11;;;;;;;0.30;0.30;;;;;;;6.68;100.00;96348.84;5044786;28;20066;-65
2023/11/15 06:04:38;;;;;;;0.30;0.30;;;;;;;6.77;100.00;96345.88;5044338;28;20048;-66
2023/11/15 06:07:05;;;;;;;0.30;0.30;;;;;;;7.06;100.00;96332.31;5043639;28;20137;-66
2023/11/15 06:09:32;;;;;;;0.40;0.40;;;;;;;6.94;99.52;96268.38;5044920;28;20479;-66
2023/11/15 06:11:59;;;;;;;0.40;0.40;;;;;;;7.55;98.05;96322.19;5044513;28;20056;-65
2023/11/15 06:14:25;;;;;;;0.30;0.30;;;;;;;6.81;98.05;96190.66;5044701;28;20053;-66
2023/11/15 06:16:52;;;;;;;0.40;0.40;;;;;;;7.56;96.44;96246.59;5044132;28;20148;-65
2023/11/15 06:19:21;;;;;;;0.38;0.38;;;;;;;8.38;94.94;96306.50;5044616;28;20484;-65
2023/11/15 06:21:48;;;;;;;0.40;0.40;;;;;;;8.46;93.60;96272.31;5043902;28;20049;-67
2023/11/15 06:24:14;;;;;;;0.40;0.40;;;;;;;7.95;92.73;96318.06;5044455;28;20053;-64
2023/11/15 06:26:42;;;;;;;0.40;0.40;;;;;;;8.29;93.75;96322.53;5044367;28;20150;-66
2023/11/15 06:29:09;;;;;;;0.40;0.40;;;;;;;8.23;92.57;96279.91;5044437;28;20132;-64
2023/11/15 06:31:39;;;;;;;0.40;0.40;;;;;;;8.85;91.07;96329.59;5044342;28;20056;-65
2023/11/15 06:34:05;;;;;;;0.40;0.40;;;;;;;7.51;88.98;96056.78;5041426;28;20475;-62
2023/11/15 06:36:36;;;;;;;0.40;0.40;;;;;;;9.52;89.30;96313.72;5026385;28;20045;-62
2023/11/15 06:39:05;;;;;;;0.40;0.40;;;;;;;9.98;86.90;96314.09;5013404;28;20055;-61
2023/11/15 06:41:34;;;;;;;0.50;0.50;;;;;;;9.54;84.16;96217.38;5039732;28;20048;-61
2023/11/15 06:44:03;;;;;;;0.40;0.40;;;;;;;10.35;82.38;96326.63;5016855;28;20088;-64
2023/11/15 06:46:30;;;;;;;0.50;0.50;;;;;;;9.84;82.17;96242.09;5024515;28;20454;-61
2023/11/15 06:48:57;;;;;;;0.50;0.50;;;;;;;10.40;81.75;96323.50;5024474;28;20056;-58
2023/11/15 06:51:23;;;;;;;0.43;0.43;;;;;;;10.15;81.03;96291.31;5022591;28;20059;-65
2023/11/15 06:53:53;;;;;;;0.50;0.50;;;;;;;10.82;80.54;96311.88;5032489;28;20135;-62
2023/11/15 06:56:20;;;;;;;0.50;0.50;;;;;;;11.12;80.20;96308.78;5025544;28;20063;-65
2023/11/15 06:58:46;;;;;;;0.50;0.50;;;;;;;11.43;77.75;96305.31;5037632;28;20068;-69
2023/11/15 07:01:13;;;;;;;0.50;0.50;;;;;;;11.22;78.22;96267.25;5014248;28;20081;-65
2023/11/15 07:03:43;;;;;;;0.50;0.50;;;;;;;11.33;76.93;96256.19;5023475;28;20053;-64
2023/11/15 07:06:10;;;;;;;0.50;0.50;;;;;;;11.66;75.81;96258.59;5026147;28;20104;-61
2023/11/15 07:08:37;;;;;;;0.60;0.60;;;;;;;11.80;75.56;96258.59;5023052;28;20539;-63
2023/11/15 07:11:08;;;;;;;0.50;0.50;;;;;;;12.19;75.25;96299.00;5021825;28;20040;-63
2023/11/15 07:13:35;;;;;;;0.50;0.50;;;;;;;12.10;75.40;96286.72;5043126;28;20569;-61
2023/11/15 07:16:04;;;;;;;0.50;0.50;;;;;;;11.61;75.93;96237.59;5023645;28;20080;-65
2023/11/15 07:18:33;;;;;;;0.50;0.50;;;;;;;12.19;76.01;96298.22;5024089;28;20045;-62
2023/11/15 07:21:00;;;;;;;0.50;0.50;;;;;;;11.53;75.70;96254.59;5042838;28;20067;-62
2023/11/15 07:23:27;;;;;;;0.55;0.55;;;;;;;11.51;77.02;96207.06;5040967;28;20049;-62
2023/11/15 07:25:55;;;;;;;0.50;0.50;;;;;;;11.76;76.75;96246.72;5041670;28;20060;-63
2023/11/15 07:28:23;;;;;;;0.50;0.50;;;;;;;11.80;75.43;96219.75;5040643;28;20537;-67
2023/11/15 07:30:51;;;;;;;0.50;0.50;;;;;;;11.70;75.78;96193.59;5022114;28;20488;-63
2023/11/15 07:33:20;;;;;;;0.50;0.50;;;;;;;12.66;73.51;96278.25;5041437;28;20060;-63
2023/11/15 07:35:48;;;;;;;0.60;0.60;;;;;;;12.86;73.15;96271.06;5040669;28;20076;-65
2023/11/15 07:38:15;;;;;;;0.50;0.50;;;;;;;12.60;71.23;96204.84;5040424;28;20075;-67
2023/11/15 07:40:42;;;;;;;0.50;0.50;;;;;;;13.35;72.15;96248.56;5040163;28;20048;-68
2023/11/15 07:43:10;;;;;;;0.60;0.60;;;;;;;13.89;69.50;96282.34;5025617;28;20048;-61
2023/11/15 07:45:38;;;;;;;0.57;0.57;;;;;;;14.23;67.32;96269.31;5041055;28;20158;-62
2023/11/15 07:48:06;;;;;;;0.60;0.60;;;;;;;14.51;66.09;96269.06;5042468;28;20060;-61
2023/11/15 07:50:35;;;;;;;0.70;0.70;;;;;;;15.04;64.64;96274.78;5017595;28;20061;-65
2023/11/15 07:53:02;;;;;;;0.63;0.63;;;;;;;15.30;63.37;96276.81;5006303;28;20055;-66
2023/11/15 07:55:29;;;;;;;0.60;0.60;;;;;;;14.96;63.39;96274.09;5036442;28;20147;-63
2023/11/15 07:57:56;;;;;;;0.65;0.65;;;;;;;14.98;63.83;96270.91;5033214;28;20479;-62
2023/11/15 08:00:23;;;;;;;0.68;0.68;;;;;;;15.36;62.97;96264.00;5038020;28;20103;-62
2023/11/15 08:02:54;;;;;;;0.70;0.70;;;;;;;15.61;61.28;96258.88;5007026;28;20127;-65
2023/11/15 08:05:22;;;;;;;0.60;0.60;;;;;;;15.59;60.90;96233.38;5022560;28;20048;-63
2023/11/15 08:07:49;;;;;;;0.70;0.70;;;;;;;15.31;60.41;96161.22;5032010;28;20055;-61
2023/11/15 08:10:16;;;;;;;0.70;0.70;;;;;;;16.20;59.14;96257.09;5041572;28;20049;-60
2023/11/15 08:12:44;;;;;;;0.60;0.60;;;;;;;16.04;59.41;96259.78;5039990;28;20154;-67
2023/11/15 08:15:14;;;;;;;0.70;0.70;;;;;;;15.82;59.67;96230.59;5053493;28;20056;-63
2023/11/15 08:17:46;;;;;;;0.60;0.60;;;;;;;14.74;59.69;96071.25;5031668;28;20048;-65
2023/11/15 08:20:14;;;;;;;0.70;0.70;;;;;;;13.44;60.84;95928.97;5058105;28;20063;-66
2023/11/15 08:22:41;;;;;;;0.70;0.70;;;;;;;14.99;61.39;96172.84;5066588;28;20048;-66
2023/11/15 08:25:09;;;;;;;0.70;0.70;;;;;;;15.14;61.84;96190.19;5065144;28;20067;-66
2023/11/15 08:27:38;;;;;;;0.63;0.63;;;;;;;15.36;63.21;96275.16;5065854;28;20233;-66
2023/11/15 08:30:16;;;;;;;0.70;0.70;;;;;;;15.48;61.80;96260.66;5058088;28;20529;-65
2023/11/15 08:32:45;;;;;;;0.70;0.70;;;;;;;15.35;62.83;96251.25;5077115;28;20118;-65
2023/11/15 08:35:14;;;;;;;0.60;0.60;;;;;;;14.17;63.24;96067.63;5065809;28;20059;-67
2023/11/15 08:37:41;;;;;;;0.60;0.60;;;;;;;15.12;62.80;96203.75;5066227;28;20125;-65
2023/11/15 08:40:11;;;;;;;0.80;0.80;;;;;;;15.31;63.18;96233.78;5064463;28;20044;-66
2023/11/15 08:42:54;;;;;;;0.60;0.60;;;;;;;15.46;63.42;96251.91;5066269;28;20059;-63
2023/11/15 08:45:21;;;;;;;0.60;0.60;;;;;;;15.00;63.05;96168.84;5065942;28;20388;-64
2023/11/15 08:47:48;;;;;;;0.70;0.70;;;;;;;15.49;63.13;96234.31;5066069;28;20097;-64
2023/11/15 08:50:15;;;;;;;0.70;0.70;;;;;;;15.52;63.19;96253.03;5062458;28;20052;-63
2023/11/15 08:52:42;;;;;;;0.70;0.70;;;;;;;14.69;67.60;96230.63;5064353;28;20080;-65
2023/11/15 08:55:11;;;;;;;0.60;0.60;;;;;;;14.26;66.66;96102.16;5062141;28;20052;-66
2023/11/15 08:57:38;;;;;;;0.60;0.60;;;;;;;14.35;66.51;96155.38;5064276;28;20140;-66
2023/11/15 09:00:12;;;;;;;0.70;0.70;;;;;;;15.08;67.15;96253.22;5056669;28;20770;-66
2023/11/15 09:02:42;;;;;;;0.70;0.70;;;;;;;14.22;72.38;96228.72;5044430;28;20053;-63
2023/11/15 09:05:10;;;;;;;0.60;0.60;;;;;;;14.38;70.89;96164.91;5044499;28;20150;-65
2023/11/15 09:07:38;;;;;;;0.68;0.68;;;;;;;13.08;70.78;95949.25;5044173;28;20048;-65
2023/11/15 09:10:09;;;;;;;0.60;0.60;;;;;;;14.84;70.80;96210.50;5056842;28;20048;-65
2023/11/15 09:12:36;;;;;;;0.60;0.60;;;;;;;15.24;70.15;96222.69;5065131;28;20055;-64
2023/11/15 09:15:11;;;;;;;0.63;0.63;;;;;;;14.49;70.99;96193.44;5046831;28;20530;-65
2023/11/15 09:17:46;;;;;;;0.68;0.68;;;;;;;14.35;71.44;96137.88;5065170;28;20055;-65
2023/11/15 09:20:29;;;;;;;0.68;0.68;;;;;;;15.43;68.66;96218.50;5047564;28;20044;-65
2023/11/15 09:22:57;;;;;;;0.70;0.70;;;;;;;15.25;69.29;96212.34;5065474;28;20061;-65
2023/11/15 09:25:26;;;;;;;0.70;0.70;;;;;;;14.92;68.65;96239.88;5064953;28;20048;-66
2023/11/15 09:27:58;;;;;;;0.60;0.60;;;;;;;14.75;69.68;96212.22;5065316;28;20581;-64
2023/11/15 09:30:25;;;;;;;0.70;0.70;;;;;;;15.20;66.70;96174.56;5063954;28;20099;-64
2023/11/15 09:32:53;;;;;;;0.70;0.70;;;;;;;16.04;61.74;96219.88;5046938;28;20524;-65
2023/11/15 09:35:23;;;;;;;0.70;0.70;;;;;;;16.10;60.93;96191.03;5064359;28;20125;-65
2023/11/15 09:37:52;;;;;;;0.60;0.60;;;;;;;16.20;60.75;96217.19;5064789;28;20118;-65
2023/11/15 09:40:21;;;;;;;0.70;0.70;;;;;;;14.71;60.99;96072.09;5064722;28;20048;-65
2023/11/15 09:42:51;;;;;;;0.70;0.70;;;;;;;15.28;59.41;96122.22;5064967;28;20064;-66
2023/11/15 09:45:20;;;;;;;0.60;0.60;;;;;;;15.33;58.93;96122.53;5064842;28;20052;-64
2023/11/15 09:47:49;;;;;;;0.70;0.70;;;;;;;15.57;60.18;96191.13;5064987;28;20052;-67
2023/11/15 09:50:20;;;;;;;0.70;0.70;;;;;;;15.88;59.43;96166.69;5049820;28;20050;-66
2023/11/15 09:52:55;;;;;;;0.70;0.70;;;;;;;16.19;59.60;96219.19;5022403;28;20597;-68
2023/11/15 09:55:24;;;;;;;0.70;0.70;;;;;;;15.82;59.27;96160.78;5044675;28;20420;-64
2023/11/15 09:57:53;;;;;;;0.70;0.70;;;;;;;16.10;59.27;96202.19;5024374;28;20517;-66
2023/11/15 10:00:21;;;;;;;0.70;0.70;;;;;;;15.60;59.65;96167.94;5029152;28;20049;-63
2023/11/15 10:02:52;;;;;;;0.70;0.70;;;;;;;15.76;60.80;96220.34;5043227;28;20194;-68
2023/11/15 10:05:23;;;;;;;0.60;0.60;;;;;;;14.42;61.23;95970.59;5024527;28;20045;-63
2023/11/15 10:07:54;;;;;;;0.70;0.70;;;;;;;15.73;63.34;96216.41;5007513;28;20088;-64
2023/11/15 10:10:22;;;;;;;0.70;0.70;;;;;;;15.38;62.23;96158.34;5021545;28;20072;-63
2023/11/15 10:12:55;;;;;;;0.70;0.70;;;;;;;14.82;62.12;96168.31;5022783;28;20064;-59
2023/11/15 10:15:36;;;;;;;0.60;0.60;;;;;;;15.69;62.49;96215.69;5034768;28;21422;-61
2023/11/15 10:18:04;;;;;;;0.70;0.70;;;;;;;16.09;61.19;96200.59;5041642;28;20063;-61
2023/11/15 10:20:30;;;;;;;0.80;0.80;;;;;;;16.40;58.98;96220.81;5050535;28;20071;-66
2023/11/15 10:22:57;;;;;;;0.70;0.70;;;;;;;15.58;58.75;96164.00;5040898;28;20045;-65
2023/11/15 10:25:25;;;;;;;0.70;0.70;;;;;;;16.66;57.73;96238.72;5032363;28;20506;-61
2023/11/15 10:28:04;;;;;;;0.77;0.77;;;;;;;16.50;57.15;96231.03;5024224;28;20057;-60
2023/11/15 10:30:32;;;;;;;0.70;0.70;;;;;;;14.95;56.38;95962.19;5041728;28;20049;-64
2023/11/15 10:33:13;;;;;;;0.70;0.70;;;;;;;16.97;57.01;96220.47;5025596;28;20056;-64
2023/11/15 10:35:43;;;;;;;0.70;0.70;;;;;;;17.29;56.44;96240.19;5039617;28;20053;-62
2023/11/15 10:38:19;;;;;;;0.70;0.70;;;;;;;17.39;55.85;96241.94;5041266;28;20049;-61
2023/11/15 10:40:49;;;;;;;0.70;0.70;;;;;;;17.35;55.23;96213.25;5060915;28;20044;-62
2023/11/15 10:43:17;;;;;;;0.80;0.80;;;;;;;17.38;55.60;96198.38;5063730;28;20102;-66
2023/11/15 10:45:45;;;;;;;0.70;0.70;;;;;;;17.23;55.06;96164.31;5063677;28;20067;-62
2023/11/15 10:48:17;;;;;;;0.70;0.70;;;;;;;16.97;55.08;96114.97;5063503;28;20106;-66
2023/11/15 10:50:53;;;;;;;0.70;0.70;;;;;;;17.70;55.35;96220.84;5063546;28;20045;-61
2023/11/15 10:53:20;;;;;;;0.70;0.70;;;;;;;17.66;55.01;96184.53;5063673;28;20044;-66
2023/11/15 10:55:48;;;;;;;0.80;0.80;;;;;;;18.15;54.84;96216.13;5060742;28;20056;-65
2023/11/15 10:58:17;;;;;;;0.80;0.80;;;;;;;18.46;54.96;96225.75;5043862;28;20053;-61
2023/11/15 11:00:46;;;;;;;0.77;0.77;;;;;;;18.70;54.50;96213.03;5041847;28;20059;-61
2023/11/15 11:03:13;;;;;;;0.70;0.70;;;;;;;18.04;55.20;96176.34;5063590;28;20048;-66
2023/11/15 11:06:02;;;;;;;0.70;0.70;;;;;;;18.60;55.39;96225.38;5063527;28;20124;-65
2023/11/15 11:08:58;;;;;;;0.80;0.80;;;;;;;18.71;55.84;96220.25;5045899;28;20092;-66
2023/11/15 11:11:33;;;;;;;0.75;0.75;;;;;;;18.07;55.91;96142.63;5064154;28;20106;-61
2023/11/15 11:14:30;;;;;;;0.70;0.70;;;;;;;18.36;57.64;96221.19;5054735;28;20067;-66
2023/11/15 11:16:58;;;;;;;0.80;0.80;;;;;;;18.22;59.17;96254.41;5061982;28;20057;-67
2023/11/15 11:19:28;;;;;;;0.70;0.70;;;;;;;18.18;60.39;96222.88;5063493;28;20052;-67
2023/11/15 11:22:08;;;;;;;0.70;0.70;;;;;;;18.12;61.59;96217.00;5063418;28;20045;-67
2023/11/15 11:25:06;;;;;;;0.80;0.80;;;;;;;17.51;63.68;96174.09;5063358;28;20586;-66
2023/11/15 11:27:36;;;;;;;0.80;0.80;;;;;;;17.75;64.15;96220.34;5063801;28;20052;-67
2023/11/15 11:30:11;;;;;;;0.70;0.70;;;;;;;17.88;64.47;96240.81;5063445;28;20050;-66
2023/11/15 11:32:44;;;;;;;0.70;0.70;;;;;;;17.64;64.92;96217.00;5062027;28;20091;-61
2023/11/15 11:35:13;;;;;;;0.80;0.80;;;;;;;17.77;64.67;96229.06;5062924;28;20048;-63
2023/11/15 11:37:44;;;;;;;0.70;0.70;;;;;;;17.60;64.20;96196.69;5063457;28;20056;-67
2023/11/15 11:40:14;;;;;;;0.70;0.70;;;;;;;17.29;64.17;96150.59;5062965;28;20052;-67
2023/11/15 11:42:43;;;;;;;0.85;0.85;;;;;;;17.66;63.87;96228.53;5061786;28;20084;-67